UAL198 KLAX-ZSPD
Flight info
| Callsign | UAL198 |
|---|---|
| Flight time | N/A |
| Altitude | 30000 |
| Route | SUMMR2 RIZIN DCT FLW DCT RGOOD DCT OAK DCT AMAKR/N0493F320 DCT REDWD DCT 43N134W 46N140W 50N150W 53N160W/N0485F340 DCT ALEUT DCT 55N180E DCT NATES/N0492F350 R220 NUZAN/N0495F360 R220 NOGAL/N0479F370 R220 NODAN/N0484F360 R217 ASTER/N0478F380 R217 GTC Y142 SAMON Y14 DGC Y28 ISAKY Y592 ONIKU A593 LAMEN/K0869F280 A593 PUD |
| Aircraft | B772/H-SDE2E3FGHIJ5LORVWXY/LB1D1 |
Departure
| Time | 2026-05-05 17:23 |
|---|---|
| Airport | Los Angeles International Airport (KLAX) |
Arrival
| Time | N/A |
|---|---|
| Airport | Shanghai Pudong International Airport (ZSPD) |
| Time | Latitude | Longitude | Altitude | Speed | Heading |
|---|---|---|---|---|---|
| 2026-05-05 16:57 | 33.94002 | -118.40234 | 101 ft | 0 kts | 34° |
| 2026-05-05 17:11 | 33.93996 | -118.40238 | 98 ft | 3 kts | 34° |
| 2026-05-05 17:11 | 33.93981 | -118.40251 | 97 ft | 3 kts | 46° |
| 2026-05-05 17:11 | 33.93971 | -118.40271 | 95 ft | 3 kts | 71° |
| 2026-05-05 17:12 | 33.93965 | -118.40292 | 97 ft | 3 kts | 71° |
| 2026-05-05 17:12 | 33.93958 | -118.40314 | 96 ft | 3 kts | 49° |
| 2026-05-05 17:12 | 33.93948 | -118.40325 | 97 ft | 3 kts | 25° |
| 2026-05-05 17:12 | 33.93932 | -118.40333 | 96 ft | 0 kts | 25° |
| 2026-05-05 17:13 | 33.93921 | -118.40342 | 97 ft | 3 kts | 55° |
| 2026-05-05 17:13 | 33.93919 | -118.40346 | 98 ft | 0 kts | 65° |
| 2026-05-05 17:16 | 33.93919 | -118.40345 | 98 ft | 1 kts | 65° |
| 2026-05-05 17:16 | 33.93926 | -118.40325 | 96 ft | 3 kts | 65° |
| 2026-05-05 17:16 | 33.93934 | -118.40283 | 96 ft | 8 kts | 81° |
| 2026-05-05 17:17 | 33.93941 | -118.40214 | 100 ft | 8 kts | 83° |
| 2026-05-05 17:17 | 33.93949 | -118.40130 | 98 ft | 11 kts | 83° |
| 2026-05-05 17:17 | 33.93926 | -118.40055 | 101 ft | 11 kts | 154° |
| 2026-05-05 17:17 | 33.93881 | -118.39993 | 103 ft | 11 kts | 92° |
| 2026-05-05 17:18 | 33.93889 | -118.39895 | 100 ft | 15 kts | 84° |
| 2026-05-05 17:18 | 33.93901 | -118.39768 | 102 ft | 15 kts | 83° |
| 2026-05-05 17:18 | 33.93913 | -118.39640 | 99 ft | 15 kts | 83° |
| 2026-05-05 17:18 | 33.93928 | -118.39512 | 100 ft | 15 kts | 82° |
| 2026-05-05 17:19 | 33.93941 | -118.39384 | 101 ft | 15 kts | 83° |
| 2026-05-05 17:19 | 33.93955 | -118.39257 | 99 ft | 15 kts | 83° |
| 2026-05-05 17:19 | 33.93969 | -118.39130 | 100 ft | 15 kts | 83° |
| 2026-05-05 17:19 | 33.93982 | -118.39002 | 98 ft | 15 kts | 83° |
| 2026-05-05 17:20 | 33.93994 | -118.38874 | 98 ft | 15 kts | 83° |
| 2026-05-05 17:20 | 33.94007 | -118.38747 | 99 ft | 15 kts | 83° |
| 2026-05-05 17:20 | 33.94020 | -118.38619 | 99 ft | 15 kts | 83° |
| 2026-05-05 17:20 | 33.94033 | -118.38491 | 100 ft | 15 kts | 83° |
| 2026-05-05 17:21 | 33.94045 | -118.38365 | 100 ft | 15 kts | 83° |
| 2026-05-05 17:21 | 33.94058 | -118.38237 | 100 ft | 15 kts | 83° |
| 2026-05-05 17:21 | 33.94071 | -118.38109 | 100 ft | 15 kts | 83° |
| 2026-05-05 17:22 | 33.93984 | -118.38053 | 99 ft | 12 kts | 255° |
| 2026-05-05 17:22 | 33.93969 | -118.38170 | 101 ft | 25 kts | 262° |
| 2026-05-05 17:22 | 33.93919 | -118.38655 | 101 ft | 93 kts | 263° |
| 2026-05-05 17:22 | 33.93811 | -118.39696 | 103 ft | 155 kts | 263° |
| 2026-05-05 17:23 | 33.93656 | -118.41147 | 300 ft | 188 kts | 263° |
| 2026-05-05 17:23 | 33.93493 | -118.42759 | 944 ft | 196 kts | 263° |
| 2026-05-05 17:23 | 33.93332 | -118.44385 | 1719 ft | 200 kts | 264° |
| 2026-05-05 17:23 | 33.93167 | -118.46124 | 2104 ft | 215 kts | 264° |
| 2026-05-05 17:24 | 33.93012 | -118.47939 | 2433 ft | 223 kts | 264° |
| 2026-05-05 17:24 | 33.92851 | -118.49862 | 2594 ft | 240 kts | 264° |
| 2026-05-05 17:24 | 33.92683 | -118.51892 | 2917 ft | 248 kts | 264° |
| 2026-05-05 17:24 | 33.92512 | -118.53960 | 3481 ft | 249 kts | 265° |
| 2026-05-05 17:25 | 33.92339 | -118.56059 | 3975 ft | 252 kts | 265° |
| 2026-05-05 17:25 | 33.92222 | -118.57462 | 4274 ft | 256 kts | 265° |
| 2026-05-05 17:25 | 33.91984 | -118.60339 | 4967 ft | 258 kts | 265° |
| 2026-05-05 17:25 | 33.91803 | -118.62514 | 4978 ft | 262 kts | 265° |
| 2026-05-05 17:26 | 33.91714 | -118.64656 | 5002 ft | 258 kts | 270° |
| 2026-05-05 17:26 | 33.91715 | -118.66821 | 5005 ft | 259 kts | 271° |
| 2026-05-05 17:26 | 33.91725 | -118.69002 | 5009 ft | 262 kts | 271° |
| 2026-05-05 17:26 | 33.91731 | -118.71201 | 5014 ft | 263 kts | 271° |
| 2026-05-05 17:27 | 33.91733 | -118.73408 | 5005 ft | 265 kts | 270° |
| 2026-05-05 17:27 | 33.91728 | -118.75646 | 5345 ft | 268 kts | 271° |
| 2026-05-05 17:27 | 33.91720 | -118.77891 | 5933 ft | 268 kts | 271° |
| 2026-05-05 17:27 | 33.91710 | -118.80150 | 6429 ft | 272 kts | 272° |
| 2026-05-05 17:28 | 33.91700 | -118.82430 | 6896 ft | 274 kts | 271° |
| 2026-05-05 17:28 | 33.91711 | -118.84696 | 7409 ft | 274 kts | 274° |
| 2026-05-05 17:28 | 33.91782 | -118.86995 | 7921 ft | 275 kts | 274° |
| 2026-05-05 17:28 | 33.91862 | -118.89303 | 8425 ft | 277 kts | 274° |
| 2026-05-05 17:29 | 33.91940 | -118.91629 | 8900 ft | 279 kts | 274° |
| 2026-05-05 17:29 | 33.92013 | -118.93972 | 9416 ft | 280 kts | 274° |
| 2026-05-05 17:29 | 33.92084 | -118.96328 | 9894 ft | 283 kts | 274° |
| 2026-05-05 17:29 | 33.92154 | -118.98724 | 10216 ft | 291 kts | 274° |
| 2026-05-05 17:30 | 33.92279 | -119.01204 | 10299 ft | 301 kts | 283° |
| 2026-05-05 17:30 | 33.93086 | -119.03529 | 10374 ft | 306 kts | 304° |
| 2026-05-05 17:30 | 33.94298 | -119.05701 | 10486 ft | 320 kts | 304° |
| 2026-05-05 17:30 | 33.95525 | -119.08023 | 10635 ft | 337 kts | 303° |
| 2026-05-05 17:31 | 33.96778 | -119.10444 | 10793 ft | 352 kts | 303° |
| 2026-05-05 17:31 | 33.98089 | -119.12987 | 11159 ft | 362 kts | 302° |
| 2026-05-05 17:31 | 33.99427 | -119.15584 | 11680 ft | 367 kts | 302° |
| 2026-05-05 17:31 | 34.00806 | -119.18175 | 12208 ft | 366 kts | 307° |
| 2026-05-05 17:32 | 34.02642 | -119.20290 | 12444 ft | 368 kts | 326° |
| 2026-05-05 17:32 | 34.04808 | -119.21994 | 12790 ft | 375 kts | 326° |
| 2026-05-05 17:32 | 34.06963 | -119.23779 | 13442 ft | 377 kts | 324° |
| 2026-05-05 17:32 | 34.09107 | -119.25605 | 14058 ft | 378 kts | 324° |
| 2026-05-05 17:33 | 34.11250 | -119.27448 | 14606 ft | 380 kts | 324° |
| 2026-05-05 17:33 | 34.13416 | -119.29318 | 15055 ft | 385 kts | 324° |
| 2026-05-05 17:33 | 34.15559 | -119.31169 | 15630 ft | 385 kts | 324° |
| 2026-05-05 17:33 | 34.17741 | -119.33054 | 16138 ft | 389 kts | 324° |
| 2026-05-05 17:34 | 34.19956 | -119.34968 | 16657 ft | 392 kts | 324° |
| 2026-05-05 17:34 | 34.22179 | -119.36891 | 17146 ft | 396 kts | 324° |
| 2026-05-05 17:34 | 34.24432 | -119.38840 | 17565 ft | 401 kts | 324° |
| 2026-05-05 17:34 | 34.26704 | -119.40807 | 18082 ft | 402 kts | 324° |
| 2026-05-05 17:35 | 34.28986 | -119.42783 | 18529 ft | 405 kts | 324° |
| 2026-05-05 17:35 | 34.31282 | -119.44773 | 18973 ft | 407 kts | 324° |
| 2026-05-05 17:35 | 34.33587 | -119.46772 | 19403 ft | 409 kts | 324° |
| 2026-05-05 17:35 | 34.35870 | -119.48753 | 19822 ft | 410 kts | 325° |
| 2026-05-05 17:36 | 34.38194 | -119.50771 | 20241 ft | 412 kts | 325° |
| 2026-05-05 17:36 | 34.40522 | -119.52789 | 20691 ft | 413 kts | 327° |
| 2026-05-05 17:36 | 34.42997 | -119.54514 | 21064 ft | 412 kts | 337° |
| 2026-05-05 17:36 | 34.45667 | -119.55793 | 21414 ft | 414 kts | 340° |
| 2026-05-05 17:37 | 34.48374 | -119.57011 | 21812 ft | 416 kts | 340° |
| 2026-05-05 17:37 | 34.50203 | -119.57838 | 22121 ft | 416 kts | 340° |
| 2026-05-05 17:37 | 34.53793 | -119.59498 | 22713 ft | 418 kts | 340° |
| 2026-05-05 17:37 | 34.56504 | -119.60782 | 23127 ft | 420 kts | 340° |
| 2026-05-05 17:38 | 34.59226 | -119.62089 | 23545 ft | 421 kts | 340° |
| 2026-05-05 17:38 | 34.61947 | -119.63407 | 23864 ft | 423 kts | 340° |
| 2026-05-05 17:38 | 34.64686 | -119.64740 | 24190 ft | 425 kts | 340° |
| 2026-05-05 17:38 | 34.67402 | -119.66065 | 24496 ft | 427 kts | 340° |
| 2026-05-05 17:39 | 34.70202 | -119.67430 | 24777 ft | 429 kts | 340° |
| 2026-05-05 17:39 | 34.72942 | -119.68767 | 25104 ft | 431 kts | 340° |
| 2026-05-05 17:39 | 34.75731 | -119.70129 | 25410 ft | 432 kts | 340° |
| 2026-05-05 17:39 | 34.78525 | -119.71493 | 25679 ft | 434 kts | 340° |
| 2026-05-05 17:40 | 34.81331 | -119.72866 | 25973 ft | 435 kts | 341° |
| 2026-05-05 17:40 | 34.84149 | -119.74246 | 26270 ft | 437 kts | 341° |
| 2026-05-05 17:40 | 34.86971 | -119.75628 | 26539 ft | 438 kts | 341° |
| 2026-05-05 17:40 | 34.89805 | -119.77016 | 26809 ft | 440 kts | 341° |
| 2026-05-05 17:41 | 34.92650 | -119.78411 | 27074 ft | 442 kts | 341° |
| 2026-05-05 17:41 | 34.95508 | -119.79814 | 27339 ft | 443 kts | 341° |
| 2026-05-05 17:41 | 34.98376 | -119.81224 | 27589 ft | 445 kts | 341° |
| 2026-05-05 17:41 | 35.01251 | -119.82637 | 27835 ft | 446 kts | 342° |
| 2026-05-05 17:42 | 35.04129 | -119.84051 | 28088 ft | 446 kts | 343° |
| 2026-05-05 17:42 | 35.07012 | -119.85265 | 28331 ft | 442 kts | 349° |
| 2026-05-05 17:42 | 35.10013 | -119.86029 | 28542 ft | 440 kts | 355° |
| 2026-05-05 17:42 | 35.13050 | -119.86463 | 28722 ft | 440 kts | 360° |
| 2026-05-05 17:43 | 35.16100 | -119.86520 | 28912 ft | 438 kts | 5° |
| 2026-05-05 17:43 | 35.19153 | -119.86414 | 29117 ft | 439 kts | 5° |
| 2026-05-05 17:43 | 35.22205 | -119.86311 | 29351 ft | 439 kts | 5° |
| 2026-05-05 17:43 | 35.25257 | -119.86215 | 29581 ft | 438 kts | 5° |
| 2026-05-05 17:44 | 35.27267 | -119.86155 | 29691 ft | 439 kts | 5° |
| 2026-05-05 17:44 | 35.30323 | -119.86068 | 29830 ft | 440 kts | 5° |
| 2026-05-05 17:44 | 35.33390 | -119.85985 | 29945 ft | 442 kts | 5° |
| 2026-05-05 17:45 | 35.39556 | -119.85825 | 30058 ft | 445 kts | 5° |
| 2026-05-05 17:45 | 35.45781 | -119.85665 | 30053 ft | 449 kts | 5° |
| 2026-05-05 17:46 | 35.52051 | -119.85504 | 30058 ft | 452 kts | 5° |
| 2026-05-05 17:46 | 35.58306 | -119.85344 | 30065 ft | 453 kts | 5° |
| 2026-05-05 17:47 | 35.64607 | -119.85182 | 30026 ft | 453 kts | 5° |
| 2026-05-05 17:47 | 35.70892 | -119.85020 | 30050 ft | 451 kts | 5° |
| 2026-05-05 17:48 | 35.77163 | -119.84857 | 30059 ft | 450 kts | 5° |
| 2026-05-05 17:48 | 35.83421 | -119.84694 | 30059 ft | 449 kts | 5° |
| 2026-05-05 17:49 | 35.89577 | -119.85583 | 30076 ft | 461 kts | 346° |
| 2026-05-05 17:49 | 35.95213 | -119.89622 | 30047 ft | 483 kts | 324° |
| 2026-05-05 17:50 | 35.99909 | -119.95628 | 30064 ft | 488 kts | 321° |
| 2026-05-05 17:50 | 36.04592 | -120.01743 | 30041 ft | 491 kts | 321° |
| 2026-05-05 17:51 | 36.09290 | -120.07791 | 30061 ft | 491 kts | 322° |
| 2026-05-05 17:51 | 36.14043 | -120.13854 | 30050 ft | 490 kts | 322° |
| 2026-05-05 17:52 | 36.18782 | -120.19892 | 30054 ft | 488 kts | 322° |
| 2026-05-05 17:52 | 36.23508 | -120.25923 | 30059 ft | 487 kts | 322° |
| 2026-05-05 17:53 | 36.28230 | -120.31962 | 30064 ft | 488 kts | 322° |
| 2026-05-05 17:53 | 36.32926 | -120.37980 | 30071 ft | 489 kts | 322° |
| 2026-05-05 17:54 | 36.37658 | -120.44060 | 30063 ft | 490 kts | 321° |
| 2026-05-05 17:54 | 36.42404 | -120.50167 | 30057 ft | 492 kts | 321° |
| 2026-05-05 17:55 | 36.47148 | -120.56284 | 30067 ft | 492 kts | 321° |
| 2026-05-05 17:55 | 36.51900 | -120.62423 | 30075 ft | 493 kts | 321° |
| 2026-05-05 17:56 | 36.56624 | -120.68537 | 30052 ft | 493 kts | 321° |
| 2026-05-05 17:56 | 36.61371 | -120.74695 | 30066 ft | 492 kts | 321° |
| 2026-05-05 17:57 | 36.66105 | -120.80847 | 30054 ft | 491 kts | 321° |
| 2026-05-05 17:57 | 36.70831 | -120.86997 | 30072 ft | 491 kts | 321° |
| 2026-05-05 17:58 | 36.75529 | -120.93120 | 30074 ft | 493 kts | 321° |
| 2026-05-05 17:58 | 36.80273 | -120.99316 | 30057 ft | 495 kts | 320° |
| 2026-05-05 17:59 | 36.85031 | -121.05548 | 30060 ft | 496 kts | 320° |
| 2026-05-05 17:59 | 36.89789 | -121.11790 | 30093 ft | 497 kts | 320° |
| 2026-05-05 18:00 | 36.94551 | -121.18049 | 30083 ft | 497 kts | 320° |
| 2026-05-05 18:00 | 36.99286 | -121.24282 | 30087 ft | 498 kts | 321° |
| 2026-05-05 18:01 | 37.04056 | -121.30573 | 30106 ft | 499 kts | 320° |
| 2026-05-05 18:01 | 37.08830 | -121.36882 | 30096 ft | 500 kts | 320° |
| 2026-05-05 18:02 | 37.13611 | -121.43214 | 30083 ft | 500 kts | 321° |
| 2026-05-05 18:02 | 37.18345 | -121.49506 | 30081 ft | 499 kts | 321° |
| 2026-05-05 18:03 | 37.23109 | -121.55833 | 30066 ft | 499 kts | 320° |
| 2026-05-05 18:03 | 37.27872 | -121.62177 | 30071 ft | 501 kts | 321° |
| 2026-05-05 18:04 | 37.32653 | -121.68562 | 30088 ft | 502 kts | 321° |
| 2026-05-05 18:04 | 37.37437 | -121.74961 | 30099 ft | 502 kts | 321° |
| 2026-05-05 18:05 | 37.42186 | -121.81327 | 30051 ft | 503 kts | 320° |
| 2026-05-05 18:05 | 37.46971 | -121.87752 | 30100 ft | 504 kts | 321° |
| 2026-05-05 18:06 | 37.51765 | -121.94202 | 30096 ft | 504 kts | 320° |
| 2026-05-05 18:06 | 37.56548 | -122.00654 | 30080 ft | 504 kts | 320° |